Tiempo atmosférico en la estación meteorológica de Amieva, Panizales, Asturias (360 m.)



Fecha
DESCASC
Temp. máxima en grados centígrados (hora)
DESCASC
Temp. mínima en grados centígrados (hora)
DESCASC
Temp. media en grados centígrados
DESCASC
Racha de viento máxima en m/sg (hora)
DESCASC
Velocidad máxima media en intervalos de 10 minutos(hora)
DESCASC
Precipitaciones diarias en mm
DESCASC
Precipitaciones de 00:00 a 06:00 en mm
DESCASC
Precipitaciones de 06:00 a 12:00 en mm
DESCASC
Precipitaciones de 12:00 a 18:00 en mm
DESCASC
Precipitaciones de 18:00 a 24:00 en mm
DESCASC
30-11-2020 15.1 (14:10) 4.4 (05:10) 9.8 4.17 (14:40) 2.5 (13:50) 0 0 0 0 0
29-11-2020 18.2 (15:20) 6.5 (00:00) 12.4 10.28 (04:40) 4.44 (04:30) 0 0 0 0 0
28-11-2020 17.8 (15:00) 5.5 (00:00) 11.6 8.33 (22:30) 4.17 (21:10) 0 0 0 0 0
27-11-2020 20 (14:20) 6.9 (00:00) 13.5 6.11 (12:50) 3.06 (12:50) 0 0 0 0 0
26-11-2020 19.6 (13:30) 8.3 (00:00) 14 10 (14:40) 4.72 (14:40) 0 0 0 0 0
25-11-2020 14.3 (02:30) 9 (00:00) 11.7 12.22 (04:00) 6.11 (02:30) 0 0 0 0 0
24-11-2020 15.4 (14:20) 5.4 (00:00) 10.4 10 (21:20) 5.28 (23:40) 0 0 0 0 0
23-11-2020 16.9 (14:50) 3.9 (00:00) 10.4 3.06 (15:10) 1.67 (13:40) 0 0 0 0 0
22-11-2020 17.4 (15:10) 4.1 (00:00) 10.7 4.17 (16:00) 1.67 (14:50) 0 0 0 0 0
21-11-2020 15.9 (15:00) 3.1 (00:00) 9.5 4.17 (14:00) 2.22 (13:10) 0 0 0 0 0
20-11-2020 15.1 (14:50) 5.4 (00:00) 10.3 5 (15:20) 2.78 (15:10) 0.2 0.2 0 0 0
19-11-2020 12.8 (13:30) 9.3 (00:00) 11.1 5 (14:20) 2.5 (15:30) 2.8 0.4 2.2 0 0.2
18-11-2020 23.3 (14:30) 10.5 (00:00) 16.9 12.22 (00:20) 6.39 (02:30) 0 0 0 0 0
17-11-2020 21.6 (15:20) 5.4 (00:00) 13.5 11.39 (23:00) 6.39 (23:59) 0.2 0 0.2 0 0
16-11-2020 16.1 (15:00) 6.1 (00:00) 11.1 5.56 (14:50) 2.5 (13:50) 0 0 0 0 0
15-11-2020 20.9 (09:40) 11.1 (00:00) 16 14.72 (09:00) 7.78 (02:10) 4.8 0 0 2.6 2.2
14-11-2020 21.2 (15:00) 15.9 (00:00) 18.6 16.67 (08:00) 8.89 (08:00) 0 0 0 0 0
13-11-2020 21.6 (15:10) 8.9 (00:00) 15.3 13.61 (23:40) 6.94 (23:59) 0 0 0 0 0
12-11-2020 22 (15:20) 10.9 (00:00) 16.4 10.28 (00:20) 5.28 (01:00) 0 0 0 0 0
11-11-2020 19.6 (15:00) 8.2 (00:00) 13.9 13.61 (14:50) 7.22 (09:30) 0 0 0 0 0
10-11-2020 17.5 (13:50) 7.4 (00:00) 12.5 5.28 (14:20) 3.06 (13:00) 0.2 0.2 0 0 0
09-11-2020 19.5 (11:50) 11 (00:00) 15.3 9.72 (03:20) 5.28 (09:40) 2.8 0 0 0.2 2.6
08-11-2020 20 (14:00) 15 (00:00) 17.5 15 (14:10) 6.94 (07:00) 0 0 0 0 0
07-11-2020 20.5 (14:00) 12.3 (00:00) 16.4 10 (00:10) 5 (15:40) 2 2 0 0 0
06-11-2020 22.2 (13:10) 13.3 (00:00) 17.8 23.33 (23:30) 10.83 (23:30) 6.8 0 0.2 0 6.6
05-11-2020 14.1 (23:59) 2.6 (00:00) 8.4 5.83 (23:59) 2.22 (23:59) 0 0 0 0 0
04-11-2020 11.1 (14:10) 4.6 (00:00) 7.9 8.61 (18:10) 5.28 (15:50) 1.2 0.6 0 0.6 0
03-11-2020 10.3 (00:30) 5.5 (00:00) 7.9 2.78 (12:10) 1.11 (10:10) 3.6 0.4 2 1 0.2
02-11-2020 23.4 (11:10) 10.2 (00:00) 16.8 9.72 (10:40) 5.28 (08:50) 5.6 0 0 1.6 4

Gráficas

Temp. máximas Temp. mínimas Temp. medias Precipitaciones Rachas de viento máximas Velocidades máximas media en intervalos de 10 minutos

Datos horarios

Fecha y hora oficial Temperatura (ºC) Velocidad del viento (km/h) Dirección del viento Racha (km/h) Dirección de racha Precipitación (mm) Presión (hPa) Tendencia (hPa) Humedad (%)
2020-12-01 23:00:00 9.1 0 Calma 9 Norte 0 -- -- 92
2020-12-01 22:00:00 9 2 Nordeste 4 Nordeste 0 -- -- 88
2020-12-01 21:00:00 9.1 2 Nordeste 3 Este 0 -- -- 89
2020-12-01 20:00:00 9.2 0 Calma 6 Nordeste 0 -- -- 89
2020-12-01 19:00:00 9.1 0 Calma 3 Nordeste 0 -- -- 87
2020-12-01 18:00:00 9.8 2 Nordeste 7 Oeste 0 -- -- 81
2020-12-01 17:00:00 10.9 2 Noroeste 8 Sudoeste 0 -- -- 72
2020-12-01 16:00:00 11.7 2 Oeste 12 Sudoeste 0 -- -- 69
2020-12-01 15:00:00 11.5 3 Oeste 8 Sudoeste 0 -- -- 74
2020-12-01 14:00:00 11.3 3 Sudoeste 9 Oeste 0 -- -- 70
2020-12-01 13:00:00 11.2 2 Sudoeste 7 Sur 0 -- -- 65
2020-12-01 12:00:00 9 3 Sudoeste 6 Sudoeste 0 -- -- 79
2020-12-01 11:00:00 7.2 2 Sudeste 4 Sudeste 0 -- -- 74
2020-12-01 10:00:00 4.3 0 Calma 3 Norte 0 -- -- 92
2020-12-01 09:00:00 2.4 0 Calma 5 Nordeste 0 -- -- 97
2020-12-01 08:00:00 2 0 Calma 4 Oeste 0 -- -- 99
2020-12-01 07:00:00 2.4 3 Norte 4 Norte 0 -- -- 99
2020-12-01 06:00:00 2.6 0 Calma 3 Nordeste 0 -- -- 100
2020-12-01 05:00:00 3.1 0 Calma 5 Oeste 0 -- -- 98
2020-12-01 04:00:00 3.3 0 Calma 4 Sudoeste 0 -- -- 98
2020-12-01 03:00:00 3.9 0 Calma 5 Oeste 0 -- -- 98
2020-12-01 02:00:00 4.4 0 Calma 4 Nordeste 0 -- -- 97
2020-12-01 01:00:00 5.9 0 Calma 10 Sudeste 0 -- -- 92
2020-12-01 00:00:00 7.3 2 Sudoeste 6 Sur 0 -- -- 94
2020-11-30 23:00:00 7.8 3 Nordeste 13 Noroeste 0 -- -- 92
2020-11-30 22:00:00 7.3 3 Noroeste 9 Sur 0 -- -- 92
2020-11-30 21:00:00 9.1 0 Calma 6 Sudoeste 0 -- -- 88
2020-11-30 20:00:00 9.4 0 Calma 6 Noroeste 0 -- -- 89
2020-11-30 19:00:00 9.4 0 Calma 4 Norte 0 -- -- 93
2020-11-30 18:00:00 8.2 0 Calma 4 Nordeste 0 -- -- 92
2020-11-30 17:00:00 10.2 2 Nordeste 3 Nordeste 0 -- -- 86
2020-11-30 16:00:00 13 0 Calma 6 Sur 0 -- -- 77
2020-11-30 15:00:00 14.5 4 Sur 15 Sudoeste 0 -- -- 71
2020-11-30 14:00:00 14.9 8 Sudoeste 12 Sudoeste 0 -- -- 65
2020-11-30 13:00:00 12.3 3 Sur 7 Sur 0 -- -- 69
2020-11-30 12:00:00 11.7 4 Sur 8 Sudoeste 0 -- -- 70
2020-11-30 11:00:00 8.9 2 Sur 4 Sudeste 0 -- -- 84
2020-11-30 10:00:00 6.5 0 Calma 3 Norte 0 -- -- 91
2020-11-30 09:00:00 4.7 0 Calma 5 Sudoeste 0 -- -- 95
2020-11-30 08:00:00 5 0 Calma 4 Nordeste 0 -- -- 94
2020-11-30 07:00:00 4.6 0 Calma 2 Sur 0 -- -- 96
2020-11-30 06:00:00 4.5 0 Calma 4 Norte 0 -- -- 95
2020-11-30 05:00:00 4.6 0 Calma 4 Norte 0 -- -- 93
2020-11-30 04:00:00 4.8 0 Calma 4 Nordeste 0 -- -- 92
2020-11-30 03:00:00 5.2 0 Calma 4 Norte 0 -- -- 92
2020-11-30 02:00:00 6 0 Calma 4 Oeste 0 -- -- 90
2020-11-30 01:00:00 6.5 0 Calma 6 Nordeste 0 -- -- 89
2020-11-30 00:00:00 6.5 2 Oeste 3 Noroeste 0 -- -- 88
2020-11-29 23:00:00 6.9 2 Este 7 Sudeste 0 -- -- 87
2020-11-29 22:00:00 6.9 0 Calma 4 Sudoeste 0 -- -- 88
2020-11-29 21:00:00 7.6 3 Oeste 5 Noroeste 0 -- -- 85
2020-11-29 20:00:00 8.2 3 Oeste 5 Oeste 0 -- -- 84
2020-11-29 19:00:00 8.3 0 Calma 3 Nordeste 0 -- -- 82
2020-11-29 18:00:00 9.9 0 Calma 4 Norte 0 -- -- 77
2020-11-29 17:00:00 13.6 0 Calma 8 Sudoeste 0 -- -- 68
2020-11-29 16:00:00 17.8 3 Sudeste 10 Sudoeste 0 -- -- 57
2020-11-29 15:00:00 17.8 4 Sur 9 Sudoeste 0 -- -- 55
2020-11-29 14:00:00 17.3 4 Sur 8 Sur 0 -- -- 58
2020-11-29 13:00:00 16.7 3 Sur 9 Sur 0 -- -- 59
2020-11-29 12:00:00 15.3 3 Sudoeste 7 Sudoeste 0 -- -- 62
2020-11-29 11:00:00 14 4 Oeste 22 Sudeste 0 -- -- 61
2020-11-29 10:00:00 11.7 3 Sudeste 19 Este 0 -- -- 68
2020-11-29 09:00:00 11.2 4 Sudeste 16 Sudeste 0 -- -- 66
2020-11-29 08:00:00 12.1 8 Sudeste 21 Sudeste 0 -- -- 63
2020-11-29 07:00:00 12.7 8 Sudeste 23 Sudeste 0 -- -- 61
2020-11-29 06:00:00 13.1 10 Sudeste 27 Sudeste 0 -- -- 59
2020-11-29 05:00:00 13.6 15 Este 37 Este 0 -- -- 57
2020-11-29 04:00:00 13.4 12 Sudeste 33 Este 0 -- -- 57
2020-11-29 03:00:00 13.3 10 Este 26 Este 0 -- -- 58
2020-11-29 02:00:00 13.6 12 Este 26 Sudeste 0 -- -- 56
2020-11-29 01:00:00 13.6 10 Sudeste 28 Este 0 -- -- 55
2020-11-29 00:00:00 13.9 12 Sudeste 22 Sudeste 0 -- -- 54
2020-11-28 23:00:00 14.5 13 Sudeste 30 Sudeste 0 -- -- 54
2020-11-28 22:00:00 14.3 12 Sudeste 29 Este 0 -- -- 56
2020-11-28 21:00:00 14 14 Sudeste 30 Este 0 -- -- 56
2020-11-28 20:00:00 9.8 4 Este 10 Nordeste 0 -- -- 78
2020-11-28 19:00:00 9.1 4 Nordeste 9 Norte 0 -- -- 84
2020-11-28 18:00:00 11.1 4 Nordeste 6 Nordeste 0 -- -- 76
2020-11-28 17:00:00 13.8 2 Nordeste 6 Noroeste 0 -- -- 70
2020-11-28 16:00:00 16.8 4 Sudoeste 12 Sudoeste 0 -- -- 54
2020-11-28 15:00:00 17.8 5 Sur 12 Oeste 0 -- -- 54
2020-11-28 14:00:00 17.1 4 Oeste 12 Sudoeste 0 -- -- 54
2020-11-28 13:00:00 16.7 4 Sur 9 Sur 0 -- -- 56
2020-11-28 12:00:00 14.9 4 Sur 10 Sudoeste 0 -- -- 57
2020-11-28 11:00:00 12.5 3 Sur 9 Sudeste 0 -- -- 66
2020-11-28 10:00:00 8.8 5 Sur 16 Sur 0 -- -- 75
2020-11-28 09:00:00 7.4 3 Sudoeste 15 Sudeste 0 -- -- 82
2020-11-28 08:00:00 6.6 2 Nordeste 8 Norte 0 -- -- 85
2020-11-28 07:00:00 6 0 Calma 5 Este 0 -- -- 88
2020-11-28 06:00:00 6.2 0 Calma 5 Sudoeste 0 -- -- 87
2020-11-28 05:00:00 5.9 2 Sudoeste 5 Nordeste 0 -- -- 89
2020-11-28 04:00:00 5.7 0 Calma 7 Este 0 -- -- 90
2020-11-28 03:00:00 6.1 0 Calma 5 Este 0 -- -- 89
2020-11-28 02:00:00 6.7 2 Nordeste 6 Este 0 -- -- 87
2020-11-28 01:00:00 6.3 0 Calma 4 Nordeste 0 -- -- 91
2020-11-28 00:00:00 6.9 0 Calma 5 Nordeste 0 -- -- 90
2020-11-27 23:00:00 8.8 0 Calma 5 Norte 0 -- -- 84
2020-11-27 22:00:00 9.7 0 Calma 5 Noroeste 0 -- -- 84
2020-11-27 21:00:00 10.1 0 Calma 8 Norte 0 -- -- 83
2020-11-27 20:00:00 10.2 0 Calma 4 Sur 0 -- -- 83
2020-11-27 19:00:00 11.3 0 Calma 4 Nordeste 0 -- -- 81
2020-11-27 18:00:00 12.8 2 Norte 6 Norte 0 -- -- 75
2020-11-27 17:00:00 15.4 0 Calma 6 Oeste 0 -- -- 65
2020-11-27 16:00:00 17 2 Oeste 11 Sudoeste 0 -- -- 58
2020-11-27 15:00:00 18.6 7 Sudeste 16 Sudoeste 0 -- -- 54
2020-11-27 14:00:00 19.3 9 Sudeste 17 Nordeste 0 -- -- 45
2020-11-27 13:00:00 19 8 Sudeste 22 Sur 0 -- -- 54
2020-11-27 12:00:00 14.6 7 Sudeste 18 Este 0 -- -- 67
2020-11-27 11:00:00 12.6 4 Oeste 9 Sudoeste 0 -- -- 75
2020-11-27 10:00:00 10.1 3 Nordeste 21 Este 0 -- -- 81
2020-11-27 09:00:00 8.2 2 Nordeste 7 Nordeste 0 -- -- 87
2020-11-27 08:00:00 8.4 4 Oeste 9 Norte 0 -- -- 87
2020-11-27 07:00:00 7.7 0 Calma 6 Oeste 0 -- -- 90
2020-11-27 06:00:00 7.3 0 Calma 5 Nordeste 0 -- -- 92
2020-11-27 05:00:00 7.6 0 Calma 5 Oeste 0 -- -- 91
2020-11-27 04:00:00 8.1 0 Calma 9 Nordeste 0 -- -- 90
2020-11-27 03:00:00 7.9 3 Nordeste 6 Sur 0 -- -- 91
2020-11-27 02:00:00 8.5 3 Norte 10 Nordeste 0 -- -- 87
2020-11-27 01:00:00 9.3 4 Oeste 8 Noroeste 0 -- -- 85
2020-11-27 00:00:00 9.4 2 Norte 6 Oeste 0 -- -- 85
2020-11-26 23:00:00 9.1 3 Nordeste 4 Nordeste 0 -- -- 86
2020-11-26 22:00:00 10.1 2 Nordeste 5 Sudoeste 0 -- -- 83
2020-11-26 21:00:00 9.9 2 Nordeste 5 Oeste 0 -- -- 86
2020-11-26 20:00:00 10.1 4 Nordeste 6 Nordeste 0 -- -- 84
2020-11-26 19:00:00 11.2 2 Norte 5 Nordeste 0 -- -- 81
2020-11-26 18:00:00 12.9 3 Nordeste 6 Nordeste 0 -- -- 73
2020-11-26 17:00:00 16.9 3 Noroeste 17 Sudeste 0 -- -- 60
2020-11-26 16:00:00 19.4 8 Sudeste 22 Sudeste 0 -- -- 46
2020-11-26 15:00:00 19.3 15 Sudeste 36 Sudeste 0 -- -- 46
2020-11-26 14:00:00 19 15 Sudeste 30 Sur 0 -- -- 46
2020-11-26 13:00:00 19.4 13 Sur 33 Sudeste 0 -- -- 48
2020-11-26 12:00:00 18.4 12 Sudeste 32 Sudeste 0 -- -- 52
2020-11-26 11:00:00 15.7 9 Sudeste 19 Sudeste 0 -- -- 61
2020-11-26 10:00:00 12 3 Sudeste 10 Oeste 0 -- -- 75
2020-11-26 09:00:00 11.4 2 Norte 16 Sudeste 0 -- -- 77
2020-11-26 08:00:00 14.1 10 Sudeste 22 Este 0 -- -- 63
2020-11-26 07:00:00 11.9 2 Este 8 Norte 0 -- -- 74
2020-11-26 06:00:00 12.6 2 Norte 11 Nordeste 0 -- -- 73
2020-11-26 05:00:00 12.3 5 Este 13 Este 0 -- -- 71
2020-11-26 04:00:00 10.4 4 Sudeste 14 Este 0 -- -- 80
2020-11-26 03:00:00 8.7 0 Calma 10 Norte 0 -- -- 87
2020-11-26 02:00:00 8.7 3 Oeste 8 Nordeste 0 -- -- 88
2020-11-26 01:00:00 8.4 2 Este 4 Nordeste 0 -- -- 88
2020-11-26 00:00:00 9 2 Nordeste 4 Nordeste 0 -- -- 87
2020-11-25 23:00:00 9.4 0 Calma 4 Norte 0 -- -- 85
2020-11-25 22:00:00 9.6 0 Calma 5 Norte 0 -- -- 83
2020-11-25 21:00:00 9.8 3 Nordeste 4 Norte 0 -- -- 80
2020-11-25 20:00:00 10.3 2 Norte 12 Sudeste 0 -- -- 76
2020-11-25 19:00:00 11.9 5 Sudeste 27 Sudeste 0 -- -- 66
2020-11-25 18:00:00 12.1 9 Este 26 Este 0 -- -- 64
2020-11-25 17:00:00 12.7 14 Este 28 Sudeste 0 -- -- 61
2020-11-25 16:00:00 13.6 13 Sudeste 31 Sur 0 -- -- 60
2020-11-25 15:00:00 13.8 9 Sudeste 26 Sur 0 -- -- 61
2020-11-25 14:00:00 13.7 7 Sudeste 20 Este 0 -- -- 63
2020-11-25 13:00:00 13.5 7 Sudeste 19 Sudoeste 0 -- -- 62
2020-11-25 12:00:00 13.5 11 Sudeste 26 Sudeste 0 -- -- 62
2020-11-25 11:00:00 13.7 10 Sur 28 Sur 0 -- -- 61
2020-11-25 10:00:00 13.4 9 Sudeste 24 Sur 0 -- -- 59
2020-11-25 09:00:00 13.4 10 Sudeste 26 Este 0 -- -- 56
2020-11-25 08:00:00 13.6 13 Sudeste 35 Sudeste 0 -- -- 56
2020-11-25 07:00:00 13.5 17 Sudeste 39 Sur 0 -- -- 60
2020-11-25 06:00:00 14 12 Sudeste 35 Este 0 -- -- 58
2020-11-25 05:00:00 14.2 17 Sudeste 37 Sudeste 0 -- -- 56
2020-11-25 04:00:00 14.2 20 Este 44 Este 0 -- -- 57
2020-11-25 03:00:00 14.2 19 Este 41 Sudeste 0 -- -- 56
2020-11-25 02:00:00 14 19 Este 39 Este 0 -- -- 57
2020-11-25 01:00:00 13.9 20 Este 41 Sudeste 0 -- -- 55
2020-11-25 00:00:00 13.6 17 Este 36 Este 0 -- -- 56
2020-11-24 23:00:00 13.3 13 Sudeste 36 Este 0 -- -- 59
2020-11-24 22:00:00 13.3 17 Este 36 Este 0 -- -- 57
2020-11-24 21:00:00 13 14 Sudeste 28 Este 0 -- -- 59
2020-11-24 20:00:00 10.2 3 Sudeste 12 Este 0 -- -- 77
2020-11-24 19:00:00 8.9 0 Calma 6 Oeste 0 -- -- 87
2020-11-24 18:00:00 10.3 3 Nordeste 5 Este 0 -- -- 83
2020-11-24 17:00:00 12.8 0 Calma 4 Sudeste 0 -- -- 78
2020-11-24 16:00:00 14.8 4 Sur 9 Sudoeste 0 -- -- 67
2020-11-24 15:00:00 15.4 5 Sudoeste 10 Sudoeste 0 -- -- 64
2020-11-24 14:00:00 14.9 4 Sudoeste 11 Noroeste -- -- -- 64
2020-11-24 13:00:00 14.4 4 Sudoeste 7 Sudeste -- -- -- 63
2020-11-24 12:00:00 12.9 4 Sur 6 Sur 0 -- -- 64
2020-11-24 11:00:00 10.7 2 Sur 6 Sudoeste 0 -- -- 76
2020-11-24 10:00:00 7.7 0 Calma 2 Nordeste 0 -- -- 75
2020-11-24 09:00:00 5.7 0 Calma 3 Nordeste 0 -- -- 82
2020-11-24 08:00:00 5.5 0 Calma 3 Nordeste 0 -- -- 81
2020-11-24 07:00:00 5.7 0 Calma 8 Nordeste 0 -- -- 83
2020-11-24 06:00:00 5.9 0 Calma 5 Norte 0 -- -- 84
2020-11-24 05:00:00 6.1 0 Calma 5 Sur 0 -- -- 85
2020-11-24 04:00:00 6.7 2 Nordeste 6 Noroeste 0 -- -- 86
2020-11-24 03:00:00 6.7 0 Calma 6 Sudoeste 0 -- -- 87
2020-11-24 02:00:00 6.2 0 Calma 4 Norte 0 -- -- 90
2020-11-24 01:00:00 5.7 0 Calma 3 Norte 0 -- -- 93
2020-11-24 00:00:00 5.5 0 Calma 3 Oeste 0 -- -- 91
2020-11-23 23:00:00 6.5 0 Calma 5 Sur 0 -- -- 88
2020-11-23 22:00:00 6.7 0 Calma 2 Norte 0 -- -- 90
2020-11-23 21:00:00 7.2 0 Calma 3 Sudoeste 0 -- -- 89
2020-11-23 20:00:00 7.6 3 Noroeste 5 Sur 0 -- -- 89
2020-11-23 19:00:00 8.1 0 Calma 3 Norte 0 -- -- 85
2020-11-23 18:00:00 9.9 0 Calma 4 Oeste 0 -- -- 79
2020-11-23 17:00:00 13.8 0 Calma 5 Sudoeste 0 -- -- 70
2020-11-23 16:00:00 16.2 4 Sudoeste 11 Sudoeste 0 -- -- 57
2020-11-23 15:00:00 16.9 5 Sur 10 Sudoeste 0 -- -- 57
2020-11-23 14:00:00 16.4 5 Sudoeste 9 Sudoeste 0 -- -- 56
2020-11-23 13:00:00 15 4 Sur 7 Sudoeste 0 -- -- 63
2020-11-23 12:00:00 13.8 4 Sudoeste 8 Sudoeste 0 -- -- 64
2020-11-23 11:00:00 11.5 3 Sur 6 Sudeste 0 -- -- 66
2020-11-23 10:00:00 6.9 3 Sudoeste 8 Sudoeste 0 -- -- 84
2020-11-23 09:00:00 4 0 Calma 5 Nordeste 0 -- -- 94
2020-11-23 08:00:00 3.9 0 Calma 5 Nordeste 0 -- -- 94
2020-11-23 07:00:00 4 0 Calma 3 Noroeste 0 -- -- 93
2020-11-23 06:00:00 4.2 0 Calma 5 Sudeste 0 -- -- 93
2020-11-23 05:00:00 4.4 0 Calma 3 Norte 0 -- -- 93
2020-11-23 04:00:00 4.9 0 Calma 4 Sudoeste 0 -- -- 93
2020-11-23 03:00:00 5 0 Calma 4 Nordeste 0 -- -- 91
2020-11-23 02:00:00 5.8 0 Calma 6 Sur 0 -- -- 92
2020-11-23 01:00:00 5.9 2 Sudoeste 5 Sur 0 -- -- 92
2020-11-23 00:00:00 6.9 0 Calma 7 Sur 0 -- -- 89
2020-11-22 23:00:00 6.8 0 Calma 8 Noroeste 0 -- -- 91
2020-11-22 22:00:00 6.7 0 Calma 5 Sudeste 0 -- -- 94
2020-11-22 21:00:00 7.3 0 Calma 6 Sudoeste 0 -- -- 92
2020-11-22 20:00:00 7.7 0 Calma 3 Nordeste 0 -- -- 93
2020-11-22 19:00:00 8.5 0 Calma 3 Oeste 0 -- -- 90
2020-11-22 18:00:00 10.3 0 Calma 4 Norte 0 -- -- 84
2020-11-22 17:00:00 13.4 4 Noroeste 10 Oeste 0 -- -- 74
2020-11-22 16:00:00 16.7 5 Sudoeste 15 Sudoeste 0 -- -- 63
2020-11-22 15:00:00 17 5 Oeste 10 Sudoeste 0 -- -- 62
2020-11-22 14:00:00 16.5 5 Sudoeste 10 Noroeste 0 -- -- 62
2020-11-22 13:00:00 15.6 4 Sudoeste 9 Oeste 0 -- -- 64
2020-11-22 12:00:00 14.3 4 Sur 6 Oeste 0 -- -- 65
2020-11-22 11:00:00 11.8 2 Sur 5 Sudeste 0 -- -- 74
2020-11-22 10:00:00 7.5 0 Calma 4 Oeste 0 -- -- 84
2020-11-22 09:00:00 5.8 3 Oeste 6 Oeste 0 -- -- 85
2020-11-22 08:00:00 4.8 2 Nordeste 5 Nordeste 0 -- -- 91
2020-11-22 07:00:00 4.5 0 Calma 4 Nordeste 0 -- -- 91
2020-11-22 06:00:00 4.3 0 Calma 4 Nordeste 0 -- -- 94
2020-11-22 05:00:00 4.1 0 Calma 3 Nordeste 0 -- -- 96
2020-11-22 04:00:00 4.4 0 Calma 3 Nordeste 0 -- -- 97
2020-11-22 03:00:00 4.3 0 Calma 3 Este 0 -- -- 98
2020-11-22 02:00:00 5.2 2 Nordeste 5 Nordeste 0 -- -- 96
2020-11-22 01:00:00 5.2 0 Calma 3 Sudoeste 0 -- -- 96
2020-11-22 00:00:00 5.3 0 Calma 3 Nordeste 0 -- -- 96
2020-11-21 23:00:00 5.5 0 Calma 4 Nordeste 0 -- -- 96
2020-11-21 22:00:00 5.9 0 Calma 4 Sudoeste 0 -- -- 95
2020-11-21 21:00:00 6.4 0 Calma 4 Sudoeste 0 -- -- 94
2020-11-21 20:00:00 6.6 0 Calma 5 Nordeste 0 -- -- 91
2020-11-21 19:00:00 7 0 Calma 3 Nordeste 0 -- -- 88
2020-11-21 18:00:00 8.5 0 Calma 3 Norte 0 -- -- 82
2020-11-21 17:00:00 12.1 0 Calma 9 Sudoeste 0 -- -- 70
2020-11-21 16:00:00 15.5 6 Sudoeste 12 Sudoeste 0 -- -- 58
2020-11-21 15:00:00 15.9 6 Sudoeste 12 Oeste 0 -- -- 55
2020-11-21 14:00:00 14.6 6 Sudoeste 15 Sudoeste 0 -- -- 62
2020-11-21 13:00:00 14 6 Sudoeste 11 Sur 0 -- -- 70
2020-11-21 12:00:00 12 4 Sur 7 Sudoeste 0 -- -- 76
2020-11-21 11:00:00 9.7 3 Sur 6 Sudoeste 0 -- -- 85
2020-11-21 10:00:00 6.4 0 Calma 7 Norte 0 -- -- 98
2020-11-21 09:00:00 3.7 2 Oeste 4 Oeste 0 -- -- 100
2020-11-21 08:00:00 3.4 2 Noroeste 5 Oeste 0 -- -- 100
2020-11-21 07:00:00 3.2 0 Calma 3 Oeste 0 -- -- 99
2020-11-21 06:00:00 3.7 0 Calma 5 Oeste 0 -- -- 100
2020-11-21 05:00:00 3.5 0 Calma 2 Norte 0 -- -- 99
2020-11-21 04:00:00 4.1 0 Calma 3 Norte 0 -- -- 99
2020-11-21 03:00:00 4.5 2 Norte 3 Noroeste 0 -- -- 100
2020-11-21 02:00:00 4.7 0 Calma 3 Norte 0 -- -- 100
2020-11-21 01:00:00 5.1 0 Calma 5 Norte 0 -- -- 99
2020-11-21 00:00:00 5.4 0 Calma 4 Sudoeste 0 -- -- 99
2020-11-20 23:00:00 5.7 2 Este 3 Sudeste 0 -- -- 100
2020-11-20 22:00:00 5.8 0 Calma 4 Nordeste 0 -- -- 98
2020-11-20 21:00:00 6.2 0 Calma 6 Nordeste 0 -- -- 97
2020-11-20 20:00:00 7.1 0 Calma 9 Este 0 -- -- 94
2020-11-20 19:00:00 7.1 0 Calma 5 Oeste 0 -- -- 94
2020-11-20 18:00:00 8.7 0 Calma 3 Sudoeste 0 -- -- 88
2020-11-20 17:00:00 11.5 0 Calma 14 Noroeste 0 -- -- 82
2020-11-20 16:00:00 14 5 Sudoeste 18 Noroeste 0 -- -- 67
2020-11-20 15:00:00 15 9 Sudoeste 13 Sudoeste 0 -- -- 65
2020-11-20 14:00:00 14.2 6 Sudoeste 13 Sudoeste 0 -- -- 67
2020-11-20 13:00:00 13.3 4 Sudoeste 13 Sudoeste 0 -- -- 71
2020-11-20 12:00:00 12.4 6 Sudoeste 12 Oeste 0 -- -- 82
2020-11-20 11:00:00 9.5 4 Sudeste 7 Sudoeste 0 -- -- 100
2020-11-20 10:00:00 7.2 0 Calma 2 Sudoeste 0 -- -- 100
2020-11-20 09:00:00 5.7 0 Calma 2 Nordeste 0 -- -- 100
2020-11-20 08:00:00 6.3 0 Calma 4 Nordeste 0 -- -- 100
2020-11-20 07:00:00 6.8 3 Nordeste 5 Nordeste 0 -- -- 100
2020-11-20 06:00:00 6.7 0 Calma 4 Norte 0 -- -- 100
2020-11-20 05:00:00 7.3 2 Norte 4 Norte 0 -- -- 98
2020-11-20 04:00:00 8.4 3 Nordeste 5 Nordeste 0 -- -- 99
2020-11-20 03:00:00 8.5 0 Calma 4 Noroeste 0 -- -- 100
2020-11-20 02:00:00 9.1 0 Calma 4 Oeste 0.2 -- -- 100
2020-11-20 01:00:00 9.3 0 Calma 4 Norte 0 -- -- 100
2020-11-20 00:00:00 9.3 0 Calma 5 Oeste 0 -- -- 100
2020-11-19 23:00:00 9.4 0 Calma 5 Oeste 0 -- -- 100
2020-11-19 22:00:00 9.4 0 Calma 4 Oeste 0 -- -- 100
2020-11-19 21:00:00 9.4 0 Calma 4 Oeste 0 -- -- 100
2020-11-19 20:00:00 9.4 4 Oeste 9 Oeste 0.2 -- -- 100
2020-11-19 19:00:00 9.9 3 Oeste 10 Oeste 0 -- -- 99
2020-11-19 18:00:00 10.1 2 Sudeste 13 Oeste 0 -- -- 99
2020-11-19 17:00:00 10.4 8 Oeste 14 Oeste 0 -- -- 98
2020-11-19 16:00:00 10.9 6 Oeste 16 Oeste 0 -- -- 98
2020-11-19 15:00:00 11.5 7 Oeste 18 Oeste 0 -- -- 97
2020-11-19 14:00:00 12.5 7 Oeste 15 Oeste 0 -- -- 93
2020-11-19 13:00:00 12.7 5 Sudoeste 12 Sudoeste 0 -- -- 96
2020-11-19 12:00:00 11.5 4 Sudoeste 14 Oeste 0 -- -- 98
2020-11-19 11:00:00 11.5 7 Oeste 15 Oeste 0 -- -- 99
2020-11-19 10:00:00 11.1 3 Sudoeste 10 Sudoeste 0.2 -- -- 100
2020-11-19 09:00:00 11 5 Sudoeste 13 Oeste 0.6 -- -- 100
2020-11-19 08:00:00 11.5 3 Sudoeste 12 Oeste 0.8 -- -- 100
2020-11-19 07:00:00 11.5 5 Oeste 10 Noroeste 0.6 -- -- 99
2020-11-19 06:00:00 11.9 0 Calma 3 Sur 0.2 -- -- 98
2020-11-19 05:00:00 11.7 0 Calma 5 Norte 0.2 -- -- 96
2020-11-19 04:00:00 12 0 Calma 6 Oeste 0 -- -- 87
2020-11-19 03:00:00 11.5 0 Calma 3 Norte 0 -- -- 91
2020-11-19 02:00:00 9.3 0 Calma 6 Noroeste 0 -- -- 94
2020-11-19 01:00:00 10.5 3 Oeste 8 Oeste 0 -- -- 89
2020-11-19 00:00:00 10.6 3 Nordeste 10 Oeste 0 -- -- 88
2020-11-18 23:00:00 10.8 3 Noroeste 6 Noroeste 0 -- -- 89
2020-11-18 22:00:00 10.8 0 Calma 5 Oeste 0 -- -- 89
2020-11-18 21:00:00 11.4 0 Calma 5 Nordeste 0 -- -- 88
2020-11-18 20:00:00 11.9 2 Nordeste 5 Oeste 0 -- -- 85
2020-11-18 19:00:00 12.7 0 Calma 4 Nordeste 0 -- -- 82
2020-11-18 18:00:00 14.6 0 Calma 4 Nordeste 0 -- -- 76
2020-11-18 17:00:00 18.8 0 Calma 6 Sur 0 -- -- 62
2020-11-18 16:00:00 22.6 5 Sur 18 Sudoeste 0 -- -- 51
2020-11-18 15:00:00 23.2 8 Sudoeste 22 Oeste 0 -- -- 50
2020-11-18 14:00:00 22.2 6 Sudoeste 13 Sudoeste 0 -- -- 52
2020-11-18 13:00:00 21.5 6 Sudoeste 10 Sudoeste 0 -- -- 55
2020-11-18 12:00:00 20.7 3 Sur 9 Sur 0 -- -- 61
2020-11-18 11:00:00 19.5 3 Sur 18 Sur 0 -- -- 62
2020-11-18 10:00:00 17.4 6 Sur 22 Sudeste 0 -- -- 60
2020-11-18 09:00:00 17.4 6 Sur 36 Sudeste 0 -- -- 59
2020-11-18 08:00:00 19.4 23 Sudeste 39 Sudeste 0 -- -- 52
2020-11-18 07:00:00 19.4 16 Sudeste 35 Sudeste 0 -- -- 53
2020-11-18 06:00:00 19.3 16 Sudeste 33 Sudeste 0 -- -- 51
2020-11-18 05:00:00 19.6 20 Sudeste 38 Sudeste 0 -- -- 50
2020-11-18 04:00:00 19.6 22 Sudeste 44 Sur 0 -- -- 48
2020-11-18 03:00:00 19.5 18 Sudeste 44 Sudeste 0 -- -- 46
2020-11-18 02:00:00 19.7 22 Sudeste 40 Sudeste 0 -- -- 44
2020-11-18 01:00:00 19.7 18 Sudeste 44 Este 0 -- -- 42
2020-11-18 00:00:00 19.9 23 Sudeste 39 Sudeste 0 -- -- 38
2020-11-17 23:00:00 20.1 21 Sudeste 41 Este 0 -- -- 38
2020-11-17 22:00:00 20.2 19 Sudeste 40 Sudeste 0 -- -- 38
2020-11-17 21:00:00 20.4 17 Sudeste 39 Sudeste 0 -- -- 38
2020-11-17 20:00:00 20.4 17 Sudeste 34 Sudeste 0 -- -- 39
2020-11-17 19:00:00 19 16 Este 32 Sudeste 0 -- -- 44
2020-11-17 18:00:00 14.7 4 Nordeste 9 Norte 0 -- -- 72
2020-11-17 17:00:00 17.7 0 Calma 6 Sudoeste 0 -- -- 62
2020-11-17 16:00:00 21.3 3 Sudoeste 8 Sur 0 -- -- 54
2020-11-17 15:00:00 21.3 3 Sur 10 Sudoeste 0 -- -- 55
2020-11-17 14:00:00 20.3 5 Sur 9 Sudoeste 0 -- -- 60
2020-11-17 13:00:00 19.2 4 Sudoeste 8 Sudoeste 0 -- -- 61
2020-11-17 12:00:00 17.3 3 Sur 6 Sudoeste 0 -- -- 67
2020-11-17 11:00:00 15.1 2 Sur 5 Sur 0 -- -- 72
2020-11-17 10:00:00 10.1 0 Calma 4 Sur 0 -- -- 86
2020-11-17 09:00:00 6.6 0 Calma 5 Nordeste 0.2 -- -- 95
2020-11-17 08:00:00 6.3 0 Calma 4 Nordeste 0 -- -- 94
2020-11-17 07:00:00 6.4 2 Nordeste 4 Nordeste 0 -- -- 95
2020-11-17 06:00:00 6.2 0 Calma 5 Nordeste 0 -- -- 94
2020-11-17 05:00:00 6.1 0 Calma 4 Nordeste 0 -- -- 96
2020-11-17 04:00:00 6.1 0 Calma 4 Nordeste 0 -- -- 97
2020-11-17 03:00:00 5.7 0 Calma 3 Nordeste 0 -- -- 98
2020-11-17 02:00:00 5.5 0 Calma 3 Sudoeste 0 -- -- 99
2020-11-17 01:00:00 5.4 0 Calma 4 Nordeste 0 -- -- 98
2020-11-17 00:00:00 6.1 0 Calma 3 Oeste 0 -- -- 99
2020-11-16 23:00:00 6.4 0 Calma 5 Oeste 0 -- -- 98
2020-11-16 22:00:00 6.8 0 Calma 3 Noroeste 0 -- -- 99
2020-11-16 21:00:00 7.3 0 Calma 3 Nordeste 0 -- -- 98
2020-11-16 20:00:00 7.6 0 Calma 3 Oeste 0 -- -- 96
2020-11-16 19:00:00 8.6 0 Calma 4 Este 0 -- -- 95
2020-11-16 18:00:00 10.3 0 Calma 4 Sudeste 0 -- -- 88
2020-11-16 17:00:00 13.3 4 Sudoeste 13 Oeste 0 -- -- 78
2020-11-16 16:00:00 15.2 6 Oeste 14 Sudoeste 0 -- -- 68
2020-11-16 15:00:00 16.1 8 Sudoeste 20 Sudoeste 0 -- -- 68
2020-11-16 14:00:00 15.8 9 Sur 16 Sur 0 -- -- 70
2020-11-16 13:00:00 14.9 7 Sudoeste 14 Sudoeste 0 -- -- 73
2020-11-16 12:00:00 14.3 6 Sudoeste 10 Sudoeste 0 -- -- 74
2020-11-16 11:00:00 12.3 3 Sur 6 Sudoeste 0 -- -- 87
2020-11-16 10:00:00 10.7 0 Calma 5 Norte 0 -- -- 95
2020-11-16 09:00:00 9.3 3 Noroeste 5 Norte 0 -- -- 97
2020-11-16 08:00:00 10 0 Calma 4 Nordeste 0 -- -- 96
2020-11-16 07:00:00 10 0 Calma 4 Nordeste 0 -- -- 97
2020-11-16 06:00:00 9.8 0 Calma 5 Sudoeste 0 -- -- 95
2020-11-16 05:00:00 10.4 4 Nordeste 6 Noroeste 0 -- -- 94
2020-11-16 04:00:00 10.5 0 Calma 3 Sudoeste 0 -- -- 98
2020-11-16 03:00:00 10.5 0 Calma 4 Nordeste 0 -- -- 96
2020-11-16 02:00:00 10.7 0 Calma 6 Nordeste 0 -- -- 95
2020-11-16 01:00:00 11.1 3 Norte 5 Noroeste 0 -- -- 96
2020-11-16 00:00:00 11.1 4 Norte 5 Norte 0 -- -- 97
2020-11-15 23:00:00 11.2 0 Calma 4 Nordeste 0 -- -- 98
2020-11-15 22:00:00 11.2 0 Calma 6 Nordeste 0.2 -- -- 98
2020-11-15 21:00:00 11.1 0 Calma 6 Oeste 0.2 -- -- 97
2020-11-15 20:00:00 11.5 4 Norte 23 Oeste 0.4 -- -- 93
2020-11-15 19:00:00 12.4 4 Sur 14 Oeste 1.4 -- -- 96
2020-11-15 18:00:00 13 5 Sudoeste 17 Noroeste 1.4 -- -- 94
2020-11-15 17:00:00 13.5 2 Sudeste 12 Noroeste 1 -- -- 96
2020-11-15 16:00:00 13.7 4 Oeste 19 Nordeste 0.2 -- -- 93
2020-11-15 15:00:00 14.9 3 Oeste 20 Noroeste 0 -- -- 93
2020-11-15 14:00:00 15.7 8 Noroeste 23 Noroeste 0 -- -- 88
2020-11-15 13:00:00 18.3 4 Sur 29 Sudeste 0 -- -- 75
2020-11-15 12:00:00 20.5 19 Sudeste 42 Este 0 -- -- 56
2020-11-15 11:00:00 20.9 18 Sudeste 41 Este 0 -- -- 53
2020-11-15 10:00:00 20.7 21 Sudeste 44 Sudeste 0 -- -- 53
2020-11-15 09:00:00 20.3 23 Sudeste 53 Sudeste 0 -- -- 54
2020-11-15 08:00:00 19.6 21 Sudeste 48 Sudeste 0 -- -- 56
2020-11-15 07:00:00 19.9 23 Sudeste 42 Este 0 -- -- 55
2020-11-15 06:00:00 19.7 16 Sudeste 43 Este 0 -- -- 54
2020-11-15 05:00:00 20 22 Sudeste 39 Sudeste 0 -- -- 53
2020-11-15 04:00:00 19.4 17 Sudeste 46 Este 0 -- -- 56
2020-11-15 03:00:00 19.1 15 Sudeste 52 Sudeste 0 -- -- 58
2020-11-15 02:00:00 18.9 26 Sudeste 52 Sudeste 0 -- -- 57
2020-11-15 01:00:00 18.7 17 Este 45 Sudeste 0 -- -- 56
2020-11-15 00:00:00 18.5 18 Sudeste 41 Sur 0 -- -- 57
2020-11-14 23:00:00 18.6 21 Sudeste 43 Sudeste 0 -- -- 54
2020-11-14 22:00:00 18.4 15 Sudeste 46 Sur 0 -- -- 53
2020-11-14 21:00:00 17.7 11 Sudeste 41 Sur 0 -- -- 56
2020-11-14 20:00:00 17.6 14 Sudeste 39 Sur 0 -- -- 58
2020-11-14 19:00:00 17.7 14 Este 34 Este 0 -- -- 57
2020-11-14 18:00:00 17.6 12 Sudeste 48 Sur 0 -- -- 56
2020-11-14 17:00:00 18.2 16 Sudeste 50 Sur 0 -- -- 55
2020-11-14 16:00:00 20.3 24 Sudeste 53 Sur 0 -- -- 50
2020-11-14 15:00:00 21.2 17 Sudeste 58 Este 0 -- -- 49
2020-11-14 14:00:00 20.7 21 Sudeste 58 Este 0 -- -- 47
2020-11-14 13:00:00 21 20 Sudeste 45 Este 0 -- -- 44
2020-11-14 12:00:00 20.2 20 Este 59 Este 0 -- -- 44
2020-11-14 11:00:00 19.3 24 Este 51 Este 0 -- -- 44
2020-11-14 10:00:00 17.6 28 Sudeste 51 Sur 0 -- -- 47
2020-11-14 09:00:00 16.7 25 Sudeste 60 Sudeste 0 -- -- 51
2020-11-14 08:00:00 16.7 32 Sudeste 60 Sur 0 -- -- 50
2020-11-14 07:00:00 16.8 30 Sudeste 54 Este 0 -- -- 48
2020-11-14 06:00:00 16.2 19 Sudeste 46 Sudeste 0 -- -- 51
2020-11-14 05:00:00 16 21 Sudeste 47 Este 0 -- -- 52
2020-11-14 04:00:00 16 19 Sudeste 47 Sur 0 -- -- 52
2020-11-14 03:00:00 16.1 22 Sudeste 50 Sudeste 0 -- -- 52
2020-11-14 02:00:00 16.1 18 Sudeste 57 Este 0 -- -- 52
2020-11-14 01:00:00 16 27 Sudeste 54 Sur 0 -- -- 52
2020-11-14 00:00:00 16.4 25 Sudeste 49 Sudeste 0 -- -- 49
2020-11-13 23:00:00 15.9 18 Sudeste 39 Este 0 -- -- 51
2020-11-13 22:00:00 14.3 14 Sudeste 30 Sudeste 0 -- -- 60
2020-11-13 21:00:00 10.1 4 Norte 9 Nordeste 0 -- -- 86
2020-11-13 20:00:00 9.5 0 Calma 4 Oeste 0 -- -- 87
2020-11-13 19:00:00 10.6 2 Norte 5 Norte 0 -- -- 82
2020-11-13 18:00:00 13 2 Oeste 4 Oeste 0 -- -- 73
2020-11-13 17:00:00 18.7 0 Calma 14 Sudoeste 0 -- -- 55
2020-11-13 16:00:00 20.7 5 Sudoeste 17 Oeste 0 -- -- 50
2020-11-13 15:00:00 21.5 10 Sur 19 Oeste 0 -- -- 48
2020-11-13 14:00:00 20.6 7 Sudoeste 26 Oeste 0 -- -- 51
2020-11-13 13:00:00 19.5 6 Sudoeste 12 Sudoeste 0 -- -- 52
2020-11-13 12:00:00 18.2 4 Sur 8 Sudoeste 0 -- -- 54
2020-11-13 11:00:00 15.5 3 Sur 6 Sur 0 -- -- 55
2020-11-13 10:00:00 12.1 3 Norte 7 Noroeste 0 -- -- 68
2020-11-13 09:00:00 9.4 2 Nordeste 10 Noroeste 0 -- -- 75
2020-11-13 08:00:00 9.3 0 Calma 4 Este 0 -- -- 76
2020-11-13 07:00:00 9.3 0 Calma 4 Oeste 0 -- -- 77
2020-11-13 06:00:00 9.6 2 Nordeste 6 Nordeste 0 -- -- 74
2020-11-13 05:00:00 10 0 Calma 4 Nordeste 0 -- -- 70
2020-11-13 04:00:00 11.1 2 Nordeste 7 Norte 0 -- -- 61
2020-11-13 03:00:00 13.6 2 Noroeste 22 Este 0 -- -- 52
2020-11-13 02:00:00 15.2 2 Norte 22 Sudeste 0 -- -- 42
2020-11-13 01:00:00 16.5 9 Sudeste 27 Sudeste 0 -- -- 33
2020-11-13 00:00:00 17.6 14 Sudeste 26 Este 0 -- -- 33
2020-11-12 23:00:00 17.3 14 Sudeste 32 Este 0 -- -- 37
2020-11-12 22:00:00 13.4 6 Sudeste 18 Este 0 -- -- 67
2020-11-12 21:00:00 11.2 0 Calma 5 Sur 0 -- -- 94
2020-11-12 20:00:00 11.1 0 Calma 5 Nordeste 0 -- -- 91
2020-11-12 19:00:00 12.3 3 Norte 5 Oeste 0 -- -- 89
2020-11-12 18:00:00 14.2 2 Noroeste 4 Noroeste 0 -- -- 80
2020-11-12 17:00:00 20.5 0 Calma 9 Sur 0 -- -- 60
2020-11-12 16:00:00 21.6 5 Sur 15 Sudoeste 0 -- -- 58
2020-11-12 15:00:00 21.9 10 Sur 18 Sur 0 -- -- 58
2020-11-12 14:00:00 21.2 8 Sudoeste 17 Sur 0 -- -- 59
2020-11-12 13:00:00 19.5 6 Sudoeste 14 Sur 0 -- -- 64
2020-11-12 12:00:00 17.9 6 Sur 10 Sur 0 -- -- 65
2020-11-12 11:00:00 16 4 Sur 8 Sudoeste 0 -- -- 73
2020-11-12 10:00:00 13.1 0 Calma 6 Noroeste 0 -- -- 83
2020-11-12 09:00:00 12.5 0 Calma 9 Norte 0 -- -- 83
2020-11-12 08:00:00 12.6 3 Este 12 Norte 0 -- -- 80
2020-11-12 07:00:00 12.3 0 Calma 5 Oeste 0 -- -- 79
2020-11-12 06:00:00 12.8 3 Sudoeste 11 Sudoeste 0 -- -- 76
2020-11-12 05:00:00 14.4 4 Noroeste 12 Noroeste 0 -- -- 68
2020-11-12 04:00:00 15.3 9 Sudeste 24 Sudeste 0 -- -- 61
2020-11-12 03:00:00 15.4 13 Sudeste 27 Sudeste 0 -- -- 63
2020-11-12 02:00:00 15.6 13 Sudeste 31 Sudeste 0 -- -- 62
2020-11-12 01:00:00 15.9 19 Sudeste 37 Sudeste 0 -- -- 59
2020-11-12 00:00:00 16.1 13 Sudeste 33 Sudeste 0 -- -- 56
2020-11-11 23:00:00 15.6 17 Sudeste 33 Sudeste 0 -- -- 55
2020-11-11 22:00:00 15.3 15 Sudeste 35 Este 0 -- -- 57
2020-11-11 21:00:00 16 18 Sudeste 36 Sudeste 0 -- -- 52
2020-11-11 20:00:00 16.6 17 Sudeste 39 Sudeste 0 -- -- 47
2020-11-11 19:00:00 16.6 17 Sudeste 45 Sudeste 0 -- -- 45
2020-11-11 18:00:00 16.7 22 Sudeste 45 Sudeste 0 -- -- 45
2020-11-11 17:00:00 16.6 17 Este 42 Sudeste 0 -- -- 45
2020-11-11 16:00:00 17.2 17 Sudeste 46 Sur 0 -- -- 45
2020-11-11 15:00:00 19.6 19 Sudeste 49 Sur 0 -- -- 42
2020-11-11 14:00:00 19.5 20 Sudeste 47 Sudoeste 0 -- -- 42
2020-11-11 13:00:00 18.3 19 Sudeste 41 Sur 0 -- -- 47
2020-11-11 12:00:00 17.9 14 Sudeste 40 Sudeste 0 -- -- 47
2020-11-11 11:00:00 16.2 19 Sudeste 40 Sudeste 0 -- -- 52
2020-11-11 10:00:00 15.6 23 Sudeste 43 Este 0 -- -- 53
2020-11-11 09:00:00 15.3 19 Sudeste 43 Este 0 -- -- 53
2020-11-11 08:00:00 14.8 15 Sudeste 34 Sur 0 -- -- 51
2020-11-11 07:00:00 14.6 15 Sudeste 34 Sudeste 0 -- -- 52
2020-11-11 06:00:00 14.7 14 Sudeste 37 Este 0 -- -- 51
2020-11-11 05:00:00 14.6 13 Sudeste 31 Sudeste 0 -- -- 52
2020-11-11 04:00:00 14.3 13 Sudeste 28 Sur 0 -- -- 52
2020-11-11 03:00:00 10.7 9 Sudeste 20 Sur 0 -- -- 68
2020-11-11 02:00:00 9.3 4 Oeste 12 Sudeste 0 -- -- 80
2020-11-11 01:00:00 9 4 Este 15 Este 0 -- -- 85
2020-11-11 00:00:00 8.5 3 Norte 6 Nordeste 0 -- -- 97
2020-11-10 23:00:00 8.8 0 Calma 5 Nordeste 0 -- -- 100
2020-11-10 22:00:00 9.2 0 Calma 4 Norte 0 -- -- 99
2020-11-10 21:00:00 8.8 2 Nordeste 4 Norte 0 -- -- 98
2020-11-10 20:00:00 9.9 0 Calma 4 Oeste 0 -- -- 96
2020-11-10 19:00:00 11.7 0 Calma 4 Nordeste 0 -- -- 93
2020-11-10 18:00:00 12.9 0 Calma 6 Sudeste 0 -- -- 89
2020-11-10 17:00:00 15.9 0 Calma 12 Sudoeste 0 -- -- 77
2020-11-10 16:00:00 16.9 5 Oeste 16 Sudoeste 0 -- -- 72
2020-11-10 15:00:00 17.3 8 Sur 19 Oeste 0 -- -- 70
2020-11-10 14:00:00 17.4 9 Sudoeste 17 Sudoeste 0 -- -- 71
2020-11-10 13:00:00 16.4 11 Sudoeste 17 Sudoeste 0 -- -- 75
2020-11-10 12:00:00 14.8 5 Sudoeste 9 Sudoeste 0 -- -- 81
2020-11-10 11:00:00 11.5 3 Sudoeste 6 Oeste 0 -- -- 93
2020-11-10 10:00:00 9.9 0 Calma 7 Sur 0 -- -- 97
2020-11-10 09:00:00 8.7 0 Calma 4 Sudoeste 0 -- -- 100
2020-11-10 08:00:00 7.4 0 Calma 4 Nordeste 0 -- -- 99
2020-11-10 07:00:00 8.5 3 Norte 6 Noroeste 0 -- -- 98
2020-11-10 06:00:00 9.8 0 Calma 5 Sur 0 -- -- 95
2020-11-10 05:00:00 11.3 0 Calma 3 Nordeste 0 -- -- 98
2020-11-10 04:00:00 11.5 0 Calma 3 Oeste 0.2 -- -- 97
2020-11-10 03:00:00 11.7 0 Calma 2 Sudoeste 0 -- -- 99
2020-11-10 02:00:00 11.6 0 Calma 4 Oeste 0 -- -- 100
2020-11-10 01:00:00 11.5 0 Calma 7 Noroeste 0 -- -- 100
2020-11-10 00:00:00 11 0 Calma 2 Norte 0 -- -- 98
2020-11-09 23:00:00 11.9 0 Calma 5 Oeste 1 -- -- 98
2020-11-09 22:00:00 12 3 Nordeste 5 Noroeste 0.6 -- -- 98
2020-11-09 21:00:00 12.2 0 Calma 4 Este 0.2 -- -- 97
2020-11-09 20:00:00 12.4 3 Nordeste 5 Nordeste 0.8 -- -- 96
2020-11-09 19:00:00 12.5 2 Noroeste 4 Noroeste 0 -- -- 93
2020-11-09 18:00:00 13.1 0 Calma 5 Oeste 0 -- -- 90
2020-11-09 17:00:00 16.6 3 Sudoeste 9 Nordeste 0 -- -- 75
2020-11-09 16:00:00 15.6 4 Este 12 Noroeste 0.2 -- -- 80
2020-11-09 15:00:00 16.5 4 Sudoeste 18 Oeste 0 -- -- 71
2020-11-09 14:00:00 18 5 Oeste 21 Sudoeste 0 -- -- 56
2020-11-09 13:00:00 19 11 Sudeste 23 Sudeste 0 -- -- 51
2020-11-09 12:00:00 19.3 12 Sudeste 27 Sudeste 0 -- -- 49
2020-11-09 11:00:00 18.5 17 Sudeste 33 Sudeste 0 -- -- 50
2020-11-09 10:00:00 16.3 19 Sudeste 35 Sudeste 0 -- -- 57
2020-11-09 09:00:00 15.3 14 Sudeste 32 Este 0 -- -- 59
2020-11-09 08:00:00 15.1 15 Sudeste 29 Sudeste 0 -- -- 60
2020-11-09 07:00:00 14.9 13 Sudeste 23 Este 0 -- -- 60
2020-11-09 06:00:00 14.8 10 Este 23 Sudeste 0 -- -- 61
2020-11-09 05:00:00 15.1 10 Sudeste 27 Sudeste 0 -- -- 59
2020-11-09 04:00:00 15.4 11 Este 35 Sur 0 -- -- 58
2020-11-09 03:00:00 15.5 13 Sudeste 28 Sudeste 0 -- -- 59
2020-11-09 02:00:00 15.5 7 Sudeste 26 Sur 0 -- -- 60
2020-11-09 01:00:00 15.6 10 Este 28 Este 0 -- -- 59
2020-11-09 00:00:00 15.8 12 Sudeste 35 Sudeste 0 -- -- 61
2020-11-08 23:00:00 16.4 18 Sur 46 Sudeste 0 -- -- 62
2020-11-08 22:00:00 17.1 19 Sudeste 39 Sudeste 0 -- -- 59
2020-11-08 21:00:00 16.8 20 Sudeste 50 Sur 0 -- -- 60
2020-11-08 20:00:00 16.8 16 Sur 35 Sur 0 -- -- 57
2020-11-08 19:00:00 16.4 21 Sur 48 Sur 0 -- -- 62
2020-11-08 18:00:00 16.7 19 Sur 52 Sudeste 0 -- -- 59
2020-11-08 17:00:00 17.6 22 Sudeste 44 Sur 0 -- -- 54
2020-11-08 16:00:00 17.7 18 Sudeste 40 Sudeste 0 -- -- 53
2020-11-08 15:00:00 18.3 18 Sudeste 54 Sudeste 0 -- -- 54
2020-11-08 14:00:00 20 22 Sudeste 50 Sudeste 0 -- -- 52
2020-11-08 13:00:00 18.3 21 Sudeste 52 Sur 0 -- -- 63
2020-11-08 12:00:00 19 25 Sudeste 49 Sur 0 -- -- 56
2020-11-08 11:00:00 17.4 22 Sudeste 41 Sudeste 0 -- -- 59
2020-11-08 10:00:00 18.3 13 Sudeste 36 Sur 0 -- -- 55
2020-11-08 09:00:00 16 17 Sudeste 37 Sur 0 -- -- 62
2020-11-08 08:00:00 15.2 14 Sudeste 41 Sur 0 -- -- 68
2020-11-08 07:00:00 15.8 25 Sudeste 42 Sur 0 -- -- 66
2020-11-08 06:00:00 16.3 10 Sudeste 38 Sudeste 0 -- -- 63
2020-11-08 05:00:00 16.5 12 Sudeste 37 Sudeste 0 -- -- 61
2020-11-08 04:00:00 16.7 13 Sudeste 41 Sudeste 0 -- -- 60
2020-11-08 03:00:00 16.7 13 Sudeste 38 Este 0 -- -- 60
2020-11-08 02:00:00 16.8 15 Este 35 Este 0 -- -- 57
2020-11-08 01:00:00 16.8 15 Este 36 Este 0 -- -- 57
2020-11-08 00:00:00 16.6 14 Este 32 Este 0 -- -- 58
2020-11-07 23:00:00 16.6 12 Este 33 Sudeste 0 -- -- 58
2020-11-07 22:00:00 16.7 14 Este 31 Este 0 -- -- 58
2020-11-07 21:00:00 16.5 12 Sudeste 32 Sur 0 -- -- 58
2020-11-07 20:00:00 16.6 12 Sudeste 30 Sudeste 0 -- -- 58
2020-11-07 19:00:00 16.6 12 Sudeste 27 Sudeste 0 -- -- 57
2020-11-07 18:00:00 17 13 Este 28 Sudeste 0 -- -- 57
2020-11-07 17:00:00 19 13 Sudeste 33 Sur 0 -- -- 54
2020-11-07 16:00:00 19.9 13 Sudeste 35 Sudeste 0 -- -- 50
2020-11-07 15:00:00 20.2 16 Sur 36 Sur 0 -- -- 54
2020-11-07 14:00:00 20.5 14 Sur 32 Sudeste 0 -- -- 53
2020-11-07 13:00:00 19.5 7 Sur 22 Sur 0 -- -- 68
2020-11-07 12:00:00 17 6 Sudoeste 17 Sudeste 0 -- -- 81
2020-11-07 11:00:00 16.3 5 Sudeste 22 Sudeste 0 -- -- 77
2020-11-07 10:00:00 14.9 9 Sudeste 24 Este 0 -- -- 81
2020-11-07 09:00:00 12.6 0 Calma 8 Noroeste 0 -- -- 96
2020-11-07 08:00:00 12.9 2 Este 12 Norte 0 -- -- 92
2020-11-07 07:00:00 12.7 3 Oeste 9 Norte 0 -- -- 94
2020-11-07 06:00:00 12.5 3 Noroeste 22 Sudeste 0 -- -- 93
2020-11-07 05:00:00 13.5 7 Sudeste 22 Este 0.2 -- -- 88
2020-11-07 04:00:00 12.4 5 Noroeste 14 Nordeste 0 -- -- 94
2020-11-07 03:00:00 12.6 3 Norte 9 Norte 0 -- -- 93
2020-11-07 02:00:00 13 3 Nordeste 23 Sudeste 1.2 -- -- 92
2020-11-07 01:00:00 14.1 10 Este 36 Sudeste 0.6 -- -- 83
2020-11-07 00:00:00 14.5 19 Sudeste 84 Sudeste 1.8 -- -- 78
2020-11-06 23:00:00 13.5 15 Sudeste 41 Sudeste 3.8 -- -- 86
2020-11-06 22:00:00 16.6 19 Sudeste 49 Sur 1 -- -- 73
2020-11-06 21:00:00 21.1 18 Este 40 Este 0 -- -- 56
2020-11-06 20:00:00 21.9 15 Sudeste 42 Este 0 -- -- 51
2020-11-06 19:00:00 21.7 17 Sudeste 41 Este 0 -- -- 50
2020-11-06 18:00:00 21.2 15 Sudeste 37 Este 0 -- -- 52
2020-11-06 17:00:00 21.2 18 Sudeste 47 Este 0 -- -- 51
2020-11-06 16:00:00 22 17 Sudeste 45 Sudeste 0 -- -- 48
2020-11-06 15:00:00 20.9 10 Sudoeste 36 Sur 0 -- -- 53
2020-11-06 14:00:00 21.3 11 Nordeste 24 Nordeste 0 -- -- 51
2020-11-06 13:00:00 21.8 8 Este 34 Sur 0 -- -- 47
2020-11-06 12:00:00 21.6 9 Sudeste 34 Este 0 -- -- 47
2020-11-06 11:00:00 19.4 17 Sudeste 36 Sudeste 0 -- -- 53
2020-11-06 10:00:00 18.5 17 Sudeste 31 Sudeste 0 -- -- 56
2020-11-06 09:00:00 17.6 16 Sudeste 36 Sudeste 0 -- -- 58
2020-11-06 08:00:00 16.7 13 Sudeste 27 Sudeste 0 -- -- 64
2020-11-06 07:00:00 15.4 10 Este 28 Este 0.2 -- -- 71
2020-11-06 06:00:00 16.9 17 Este 35 Este 0 -- -- 66
2020-11-06 05:00:00 16.7 9 Sudeste 24 Sudeste 0 -- -- 63
2020-11-06 04:00:00 16.3 6 Sudeste 35 Sudeste 0 -- -- 65
2020-11-06 03:00:00 16.9 20 Sudeste 42 Este 0 -- -- 63
2020-11-06 02:00:00 16 13 Sudeste 38 Sudeste 0 -- -- 69
2020-11-06 01:00:00 16.3 15 Sur 36 Sur 0 -- -- 66
2020-11-06 00:00:00 14.1 8 Este 21 Este 0 -- -- 75
2020-11-05 23:00:00 8.9 5 Norte 12 Sudoeste 0 -- -- 96
2020-11-05 22:00:00 8.5 0 Calma 6 Nordeste 0 -- -- 96
2020-11-05 21:00:00 8.9 0 Calma 5 Nordeste 0 -- -- 96
2020-11-05 20:00:00 8.4 0 Calma 5 Norte 0 -- -- 95
2020-11-05 19:00:00 9 0 Calma 5 Norte 0 -- -- 92
2020-11-05 18:00:00 10 0 Calma 5 Nordeste 0 -- -- 90
2020-11-05 17:00:00 10.9 0 Calma 6 Nordeste 0 -- -- 85
2020-11-05 16:00:00 11.1 0 Calma 7 Sudoeste 0 -- -- 83
2020-11-05 15:00:00 11.5 3 Sudoeste 13 Sudoeste 0 -- -- 77
2020-11-05 14:00:00 13.2 6 Sudoeste 14 Sudoeste 0 -- -- 71
2020-11-05 13:00:00 12.7 6 Sudoeste 14 Sudoeste 0 -- -- 73
2020-11-05 12:00:00 10.1 3 Sur 10 Sudoeste 0 -- -- 83
2020-11-05 11:00:00 6.4 0 Calma 5 Sudoeste 0 -- -- 96
2020-11-05 10:00:00 5.5 0 Calma 7 Sur 0 -- -- 95
2020-11-05 09:00:00 3.6 0 Calma 5 Norte 0 -- -- 100
2020-11-05 08:00:00 2.6 2 Oeste 5 Norte 0 -- -- 100
2020-11-05 07:00:00 2.7 2 Noroeste 4 Norte 0 -- -- 100
2020-11-05 06:00:00 3.1 2 Noroeste 7 Norte 0 -- -- 100
2020-11-05 05:00:00 3.3 3 Nordeste 9 Nordeste 0 -- -- 98
2020-11-05 04:00:00 3.1 0 Calma 4 Norte 0 -- -- 100
2020-11-05 03:00:00 3.3 0 Calma 5 Nordeste 0 -- -- 99
2020-11-05 02:00:00 3.6 3 Oeste 6 Norte 0 -- -- 98
2020-11-05 01:00:00 4.2 3 Noroeste 7 Sudoeste 0 -- -- 96
2020-11-05 00:00:00 4.6 0 Calma 6 Sur 0 -- -- 95
2020-11-04 23:00:00 6.7 3 Sur 13 Sudeste 0 -- -- 89
2020-11-04 22:00:00 6.5 3 Nordeste 7 Nordeste 0 -- -- 91
2020-11-04 21:00:00 7.6 2 Norte 23 Oeste 0 -- -- 85
2020-11-04 20:00:00 8.1 6 Noroeste 26 Noroeste 0 -- -- 81
2020-11-04 19:00:00 8.3 11 Noroeste 31 Sudoeste 0 -- -- 79
2020-11-04 18:00:00 8.4 11 Oeste 30 Oeste 0 -- -- 84
2020-11-04 17:00:00 9.2 12 Oeste 30 Oeste 0 -- -- 89
2020-11-04 16:00:00 10.8 14 Sudoeste 30 Oeste 0.2 -- -- 84
2020-11-04 15:00:00 10.1 10 Oeste 27 Oeste 0.4 -- -- 91
2020-11-04 14:00:00 10.6 12 Sudoeste 26 Sudoeste 0 -- -- 86
2020-11-04 13:00:00 9.3 10 Sudoeste 21 Oeste 0 -- -- 90
2020-11-04 12:00:00 8 11 Sudoeste 23 Sudoeste 0 -- -- 92
2020-11-04 11:00:00 8.4 7 Sudoeste 12 Sudoeste 0 -- -- 98
2020-11-04 10:00:00 7.4 2 Oeste 6 Norte 0 -- -- 97
2020-11-04 09:00:00 6.6 2 Oeste 5 Noroeste 0 -- -- 100
2020-11-04 08:00:00 6.5 0 Calma 2 Nordeste 0 -- -- 100
2020-11-04 07:00:00 6.4 0 Calma 0 Calma 0 -- -- 100
2020-11-04 06:00:00 6.4 0 Calma 3 Norte 0 -- -- 100
2020-11-04 05:00:00 6.4 0 Calma 5 Nordeste 0 -- -- 100
2020-11-04 04:00:00 6.4 0 Calma 4 Nordeste 0.4 -- -- 100
2020-11-04 03:00:00 6.2 0 Calma 4 Este 0 -- -- 100
2020-11-04 02:00:00 6.2 0 Calma 4 Sur 0 -- -- 100
2020-11-04 01:00:00 6.6 4 Sur 6 Sur 0.2 -- -- 100
2020-11-04 00:00:00 6.2 0 Calma 4 Noroeste 0 -- -- 100
2020-11-03 23:00:00 5.7 0 Calma 6 Este 0 -- -- 99
2020-11-03 22:00:00 7 0 Calma 4 Sudeste 0.2 -- -- 100
2020-11-03 21:00:00 6.3 2 Norte 5 Norte 0 -- -- 99
2020-11-03 20:00:00 7 0 Calma 4 Nordeste 0 -- -- 97
2020-11-03 19:00:00 7.9 0 Calma 6 Sudoeste 0 -- -- 97
2020-11-03 18:00:00 8.2 3 Nordeste 6 Nordeste 0 -- -- 95
2020-11-03 17:00:00 9.2 3 Oeste 6 Sudoeste 0.6 -- -- 91
2020-11-03 16:00:00 9.5 0 Calma 8 Sur 0.2 -- -- 93
2020-11-03 15:00:00 9.5 2 Sudeste 6 Este 0 -- -- 95
2020-11-03 14:00:00 9.6 2 Nordeste 6 Oeste 0 -- -- 92
2020-11-03 13:00:00 10.1 2 Sudeste 10 Sudoeste 0.2 -- -- 97
2020-11-03 12:00:00 9.7 3 Sudoeste 8 Sudoeste 1 -- -- 99
2020-11-03 11:00:00 9.1 0 Calma 9 Noroeste 1 -- -- 98
2020-11-03 10:00:00 9 0 Calma 8 Sudeste 0 -- -- 95
2020-11-03 09:00:00 8.5 0 Calma 8 Norte 0 -- -- 97
2020-11-03 08:00:00 7.9 4 Noroeste 9 Noroeste 0 -- -- 96
2020-11-03 07:00:00 7.5 3 Sur 9 Sur 0 -- -- 97
2020-11-03 06:00:00 6.7 2 Norte 5 Noroeste 0 -- -- 99
2020-11-03 05:00:00 7.7 2 Norte 5 Nordeste 0 -- -- 97
2020-11-03 04:00:00 9.6 2 Nordeste 4 Nordeste 0 -- -- 97
2020-11-03 03:00:00 9.8 0 Calma 5 Nordeste 0.2 -- -- 97
2020-11-03 02:00:00 10.3 0 Calma 5 Noroeste 0 -- -- 100
2020-11-03 01:00:00 10.2 0 Calma 4 Noroeste 0.2 -- -- 100
2020-11-03 00:00:00 10.2 0 Calma 4 Oeste 0.2 -- -- 100
2020-11-02 23:00:00 10.6 0 Calma 4 Nordeste 0 -- -- 99
2020-11-02 22:00:00 10.6 0 Calma 4 Sur 0 -- -- 98
2020-11-02 21:00:00 10.7 0 Calma 6 Oeste 1 -- -- 98
2020-11-02 20:00:00 11.2 0 Calma 10 Noroeste 1.6 -- -- 98
2020-11-02 19:00:00 11.6 2 Oeste 5 Oeste 1.2 -- -- 98
2020-11-02 18:00:00 12.1 2 Noroeste 5 Sur 0 -- -- 95
2020-11-02 17:00:00 12.5 3 Sudeste 7 Sur 0.4 -- -- 95
2020-11-02 16:00:00 12.7 0 Calma 12 Norte 0.4 -- -- 92
2020-11-02 15:00:00 13.2 4 Norte 17 Noroeste 0.8 -- -- 90
2020-11-02 14:00:00 15.5 2 Noroeste 14 Noroeste 0 -- -- 88
2020-11-02 13:00:00 17.5 6 Oeste 24 Oeste 0 -- -- 80
2020-11-02 12:00:00 20.5 12 Este 33 Sudeste 0 -- -- 61
2020-11-02 11:00:00 22.6 19 Sudeste 35 Sudeste 0 -- -- 51
2020-11-02 10:00:00 21.7 14 Sudeste 33 Este 0 -- -- 53
2020-11-02 09:00:00 18.5 18 Sudeste 33 Sudeste 0 -- -- 63
2020-11-02 08:00:00 14.6 9 Sudeste 20 Sudeste 0 -- -- 82
2020-11-02 07:00:00 12.6 2 Este 10 Sudeste 0 -- -- 92
2020-11-02 06:00:00 13 3 Nordeste 9 Oeste 0 -- -- 91
2020-11-02 05:00:00 14.2 3 Nordeste 18 Este 0 -- -- 85
2020-11-02 04:00:00 16.4 4 Este 17 Este 0 -- -- 74
2020-11-02 03:00:00 17.9 5 Sudeste 23 Este 0 -- -- 68
2020-11-02 02:00:00 19.9 10 Sudeste 28 Este 0 -- -- 61
2020-11-02 01:00:00 19.8 9 Sudeste 31 Nordeste 0 -- -- 63
2020-11-02 00:00:00 20.8 17 Sudeste 37 Sudeste 0 -- -- 60